Terminal Aerodrome Forecast
Issued by NWS

Home | Current Version | Previous Version | Text Only | Print | Product List | Glossary On
Versions: 1 2 3 4 5 6 7 8 9 10 11 12 13 14 15 16 17 18 19 20 21 22 23 24 25
500
FTUS43 KLSX 211739 AAE
TAFUIN
TAF AMD
KUIN 211739Z 2118/2218 22012G19KT P6SM FEW250
     FM220000 20004KT P6SM BKN250
     FM220700 03004KT 2SM BR BKN060
     FM221200 02008KT 3SM BR BKN008
     FM221300 01009KT 4SM BR OVC008=

USA.gov is the U.S. government's official web portal to all federal, state and local government web resources and services.